Time;durP1;ratioP1;P1;durP2;ratioP2;P2;SDS_P1;SDS_P2;PMS_P1;PMS_P2;Temp;Humidity;BMP_temperature;BMP_pressure;BME280_temperature;BME280_humidity;BME280_pressure;Samples;Min_cycle;Max_cycle;Signal;HPM_P1;HPM_P2
2023/01/25 00:04:06;;;;;;;;;;;;;;;2.02;100.00;100524.86;435260;1256;99237;-39
2023/01/25 00:14:10;;;;;;;;;;;;;;;2.01;100.00;100526.72;435188;1256;108483;-41
2023/01/25 00:24:16;;;;;;;;;;;;;;;1.97;100.00;100522.02;435351;1253;97998;-40
2023/01/25 00:34:31;;;;;;;;;;;;;;;1.89;100.00;100513.30;435278;1253;111917;-40
2023/01/25 00:44:37;;;;;;;;;;;;;;;1.78;100.00;100498.84;435329;1256;107522;-40
2023/01/25 00:54:43;;;;;;;;;;;;;;;1.71;100.00;100496.14;435283;1256;98727;-41
2023/01/25 01:04:49;;;;;;;;;;;;;;;1.72;100.00;100480.42;435841;1256;108165;-41
2023/01/25 01:14:55;;;;;;;;;;;;;;;1.83;100.00;100476.86;435316;1256;99551;-39
2023/01/25 01:25:01;;;;;;;;;;;;;;;1.93;100.00;100471.02;435204;1256;112016;-39
2023/01/25 01:35:07;;;;;;;;;;;;;;;1.93;100.00;100459.05;435258;1256;107136;-40
2023/01/25 01:45:31;;;;;;;;;;;;;;;1.81;100.00;100454.25;435390;1256;97992;-40
2023/01/25 01:55:36;;;;;;;;;;;;;;;1.73;99.96;100454.62;435311;1256;111687;-40
2023/01/25 02:05:47;;;;;;;;;;;;;;;1.70;99.86;100447.94;435310;1256;108467;-39
2023/01/25 02:15:55;;;;;;;;;;;;;;;1.73;99.81;100440.54;435291;1256;99233;-40
2023/01/25 02:26:02;;;;;;;;;;;;;;;1.81;99.92;100433.24;435263;1256;107709;-40
2023/01/25 02:36:16;;;;;;;;;;;;;;;1.87;99.90;100435.85;435179;1253;98829;-41
2023/01/25 02:56:28;;;;;;;;;;;;;;;1.68;99.80;100416.23;435990;1249;389593;-40
2023/01/25 03:06:33;;;;;;;;;;;;;;;1.69;99.63;100408.71;435340;1256;98621;-40
2023/01/25 03:16:38;;;;;;;;;;;;;;;1.85;99.77;100412.77;435410;1255;111244;-39
2023/01/25 03:37:08;;;;;;;;;;;;;;;1.77;99.57;100404.23;435372;1254;99063;-40
2023/01/25 03:47:13;;;;;;;;;;;;;;;1.69;99.55;100391.30;435365;1256;112367;-39
2023/01/25 03:57:19;;;;;;;;;;;;;;;1.62;99.60;100383.42;435214;1256;107238;-41
2023/01/25 04:07:24;;;;;;;;;;;;;;;1.59;99.35;100379.52;435277;1256;99265;-40
2023/01/25 04:17:30;;;;;;;;;;;;;;;1.73;99.48;100374.48;435131;1255;111962;-41
2023/01/25 04:27:36;;;;;;;;;;;;;;;1.87;99.50;100363.36;435258;1256;107670;-40
2023/01/25 04:37:41;;;;;;;;;;;;;;;1.92;99.24;100355.32;435247;1257;97979;-40
2023/01/25 04:47:47;;;;;;;;;;;;;;;1.87;99.55;100352.71;435233;1256;108270;-38
2023/01/25 04:57:52;;;;;;;;;;;;;;;1.73;99.25;100346.08;435390;1256;98213;-41
2023/01/25 05:07:58;;;;;;;;;;;;;;;1.59;99.23;100341.89;435177;1253;110689;-39
2023/01/25 05:18:04;;;;;;;;;;;;;;;1.49;99.23;100338.75;435405;1256;107622;-40
2023/01/25 05:28:10;;;;;;;;;;;;;;;1.44;99.13;100333.83;435322;1256;99257;-40
2023/01/25 05:38:15;;;;;;;;;;;;;;;1.43;98.79;100326.96;435328;1256;111931;-40
2023/01/25 05:48:21;;;;;;;;;;;;;;;1.51;99.08;100317.73;435233;1256;108597;-39
2023/01/25 05:58:27;;;;;;;;;;;;;;;1.59;99.04;100312.33;435223;1254;99259;-40
2023/01/25 06:08:33;;;;;;;;;;;;;;;1.74;99.12;100306.08;435234;1256;108096;-41
2023/01/25 06:18:38;;;;;;;;;;;;;;;1.85;99.25;100302.81;435382;1256;98361;-39
2023/01/25 06:28:44;;;;;;;;;;;;;;;1.80;99.03;100302.58;435210;1256;98078;-40
2023/01/25 06:48:55;;;;;;;;;;;;;;;1.58;98.88;100295.59;435280;1256;99256;-40
2023/01/25 06:59:00;;;;;;;;;;;;;;;1.44;98.79;100291.36;435398;1256;111346;-40
2023/01/25 07:09:06;;;;;;;;;;;;;;;1.40;98.92;100292.46;435290;1256;109882;-40
2023/01/25 07:29:17;;;;;;;;;;;;;;;1.40;99.10;100284.80;435367;1253;111227;-39
2023/01/25 07:39:23;;;;;;;;;;;;;;;1.46;98.81;100276.27;435270;1256;108597;-39
2023/01/25 07:49:28;;;;;;;;;;;;;;;1.52;98.85;100263.77;435275;1256;97979;-40
2023/01/25 07:59:34;;;;;;;;;;;;;;;1.69;99.07;100255.51;435255;1256;111777;-39
2023/01/25 08:09:40;;;;;;;;;;;;;;;1.87;99.09;100244.58;435770;1256;109520;-39
2023/01/25 08:19:45;;;;;;;;;;;;;;;2.11;99.25;100242.58;435246;1256;97993;-39
2023/01/25 08:29:52;;;;;;;;;;;;;;;2.06;98.88;100236.46;435312;1256;107904;-39
2023/01/25 08:39:58;;;;;;;;;;;;;;;1.90;98.74;100227.80;435362;1256;99116;-40
2023/01/25 08:50:04;;;;;;;;;;;;;;;1.64;98.43;100227.46;435278;1256;111971;-40
2023/01/25 09:00:12;;;;;;;;;;;;;;;1.50;98.28;100217.60;435305;1256;106391;-39
2023/01/25 09:10:17;;;;;;;;;;;;;;;1.48;98.40;100214.92;435288;1256;99215;-40
2023/01/25 09:20:23;;;;;;;;;;;;;;;1.68;98.88;100201.95;434972;1256;107860;-40
2023/01/25 09:30:28;;;;;;;;;;;;;;;1.69;98.85;100198.73;435291;1256;98847;-40
2023/01/25 09:40:51;;;;;;;;;;;;;;;1.67;98.93;100178.36;435362;1256;111864;-40
2023/01/25 09:51:04;;;;;;;;;;;;;;;1.73;99.11;100173.69;435381;1256;107251;-39
2023/01/25 10:01:16;;;;;;;;;;;;;;;1.71;98.84;100165.15;435456;1256;97996;-39
2023/01/25 10:11:27;;;;;;;;;;;;;;;1.64;98.62;100156.16;435330;1256;99106;-40
2023/01/25 10:21:31;;;;;;;;;;;;;;;1.70;98.59;100130.12;435194;1256;111751;-38
2023/01/25 10:31:36;;;;;;;;;;;;;;;1.88;98.69;100111.30;435249;1256;107456;-40
2023/01/25 10:41:43;;;;;;;;;;;;;;;2.05;98.64;100101.26;435158;1256;98900;-39
2023/01/25 10:51:52;;;;;;;;;;;;;;;2.15;98.61;100088.85;435233;1256;108502;-40
2023/01/25 11:02:18;;;;;;;;;;;;;;;2.21;98.80;100079.43;435246;1256;99321;-40
2023/01/25 11:12:24;;;;;;;;;;;;;;;2.05;98.35;100066.10;435237;1254;110845;-40
2023/01/25 11:22:30;;;;;;;;;;;;;;;1.98;98.35;100041.58;435225;1256;106618;-39
2023/01/25 11:32:38;;;;;;;;;;;;;;;1.96;98.45;100036.14;435294;1264;98003;-40
2023/01/25 11:42:44;;;;;;;;;;;;;;;1.91;98.44;100025.61;435347;1264;111181;-40
2023/01/25 11:52:55;;;;;;;;;;;;;;;1.88;98.28;100021.42;435282;1256;108021;-40
2023/01/25 12:03:29;;;;;;;;;;;;;;;1.81;98.18;100005.63;436292;1256;98023;-39
2023/01/25 12:13:34;;;;;;;;;;;;;;;1.90;98.33;99989.72;436069;1265;113776;-40
2023/01/25 12:23:55;;;;;;;;;;;;;;;1.98;98.41;99976.33;435180;1260;107275;-40
2023/01/25 12:34:03;;;;;;;;;;;;;;;2.14;98.61;99955.85;435175;1265;99282;-39
2023/01/25 12:44:08;;;;;;;;;;;;;;;2.04;98.44;99946.05;435357;1257;107652;-41
2023/01/25 12:54:14;;;;;;;;;;;;;;;1.86;98.21;99930.13;435366;1257;99244;-38
2023/01/25 13:04:21;;;;;;;;;;;;;;;1.62;98.01;99919.52;435289;1260;112235;-39
2023/01/25 13:14:28;;;;;;;;;;;;;;;1.56;98.08;99908.77;435216;1264;107905;-40
2023/01/25 13:24:34;;;;;;;;;;;;;;;1.59;98.17;99894.54;435223;1264;98841;-38
2023/01/25 13:34:58;;;;;;;;;;;;;;;1.63;98.11;99884.28;435927;1264;108537;-40
2023/01/25 13:45:05;;;;;;;;;;;;;;;1.69;98.30;99870.34;435238;1264;99269;-42
2023/01/25 13:55:16;;;;;;;;;;;;;;;1.54;98.24;99849.69;435874;1257;112227;-40
2023/01/25 14:05:24;;;;;;;;;;;;;;;1.33;98.05;99852.62;435525;1255;107851;-39
2023/01/25 14:15:30;;;;;;;;;;;;;;;1.29;98.07;99843.97;435929;1264;99320;-40
2023/01/25 14:25:40;;;;;;;;;;;;;;;1.41;98.44;99834.23;435159;1257;112105;-41
2023/01/25 14:35:46;;;;;;;;;;;;;;;1.53;98.33;99823.88;436697;1256;107991;-39
2023/01/25 14:46:19;;;;;;;;;;;;;;;1.50;98.25;99811.81;435562;1253;99243;-38
2023/01/25 14:56:33;;;;;;;;;;;;;;;1.31;98.24;99803.64;435089;1254;353242;-40
2023/01/25 15:06:50;;;;;;;;;;;;;;;1.20;98.12;99795.33;435150;1254;98856;-40
2023/01/25 15:27:00;;;;;;;;;;;;;;;1.20;98.16;99775.46;435179;1256;109037;-40
2023/01/25 15:37:05;;;;;;;;;;;;;;;1.21;98.17;99768.77;435088;1256;98097;-38
2023/01/25 15:47:10;;;;;;;;;;;;;;;1.24;98.07;99764.02;435118;1257;108047;-40
2023/01/25 15:57:15;;;;;;;;;;;;;;;1.19;98.13;99757.16;435219;1256;99282;-40
2023/01/25 16:07:21;;;;;;;;;;;;;;;1.09;98.28;99746.60;435299;1266;111365;-38
2023/01/25 16:27:34;;;;;;;;;;;;;;;1.08;98.12;99720.05;435145;1257;98063;-38
2023/01/25 16:37:40;;;;;;;;;;;;;;;1.14;98.25;99710.39;435305;1253;108580;-38
2023/01/25 16:47:45;;;;;;;;;;;;;;;1.16;98.23;99709.67;435276;1257;99246;-39
2023/01/25 16:57:48;;;;;;;;;;;;;;;1.13;98.16;99704.80;435246;1256;110806;-39
2023/01/25 17:07:54;;;;;;;;;;;;;;;1.15;98.24;99690.11;435211;1267;108789;-40
2023/01/25 17:18:00;;;;;;;;;;;;;;;1.06;98.25;99668.10;435261;1256;98050;-40
2023/01/25 17:28:06;;;;;;;;;;;;;;;0.94;98.31;99652.90;435188;1257;109785;-40
2023/01/25 17:38:11;;;;;;;;;;;;;;;0.92;98.10;99645.55;435179;1256;107608;-39
2023/01/25 17:48:17;;;;;;;;;;;;;;;1.03;98.21;99640.29;435073;1265;99330;-41
2023/01/25 17:58:23;;;;;;;;;;;;;;;1.23;98.44;99626.01;436478;1256;111415;-41
2023/01/25 18:08:28;;;;;;;;;;;;;;;1.27;98.10;99616.80;435174;1253;109328;-40
2023/01/25 18:18:34;;;;;;;;;;;;;;;1.09;98.08;99595.37;435173;1254;99233;-40
2023/01/25 18:28:40;;;;;;;;;;;;;;;0.98;98.10;99587.98;435312;1257;111593;-40
2023/01/25 18:38:46;;;;;;;;;;;;;;;1.02;98.12;99572.80;434911;1256;107877;-40
2023/01/25 18:48:51;;;;;;;;;;;;;;;1.21;98.42;99559.65;435265;1256;98837;-40
2023/01/25 19:09:03;;;;;;;;;;;;;;;1.33;98.20;99545.12;436425;1256;98804;-39
2023/01/25 19:19:09;;;;;;;;;;;;;;;1.27;98.34;99538.67;435257;1256;99228;-40
2023/01/25 19:29:13;;;;;;;;;;;;;;;1.20;98.28;99526.95;437155;1256;111145;-39
2023/01/25 19:39:19;;;;;;;;;;;;;;;1.15;98.16;99515.48;435340;1253;99269;-39
2023/01/25 19:49:25;;;;;;;;;;;;;;;1.02;97.99;99516.41;435275;1256;99221;-39
2023/01/25 20:09:35;;;;;;;;;;;;;;;0.99;97.45;99507.69;435178;1256;108763;-40
2023/01/25 20:19:42;;;;;;;;;;;;;;;1.04;97.48;99499.69;435125;1256;98809;-39
2023/01/25 20:29:48;;;;;;;;;;;;;;;1.07;97.33;99492.08;435817;1256;108083;-40
2023/01/25 20:39:53;;;;;;;;;;;;;;;1.00;97.11;99480.84;435964;1253;99234;-38
2023/01/25 20:49:59;;;;;;;;;;;;;;;0.85;96.96;99465.09;435651;1256;111719;-38
2023/01/25 21:00:03;;;;;;;;;;;;;;;0.71;96.93;99457.53;435321;1256;107041;-39
2023/01/25 21:10:10;;;;;;;;;;;;;;;0.61;96.72;99450.52;435284;1256;98546;-40
2023/01/25 21:20:16;;;;;;;;;;;;;;;0.56;96.41;99448.36;435306;1256;110298;-39
2023/01/25 21:30:22;;;;;;;;;;;;;;;0.54;96.37;99441.47;435176;1256;107526;-40
2023/01/25 21:40:29;;;;;;;;;;;;;;;0.57;96.17;99431.15;435175;1256;99247;-38
2023/01/25 22:01:00;;;;;;;;;;;;;;;0.59;96.14;99431.08;436228;1256;107397;-39
2023/01/25 22:21:11;;;;;;;;;;;;;;;0.49;95.96;99414.02;435417;1252;110414;-40
2023/01/25 22:31:17;;;;;;;;;;;;;;;0.42;95.85;99397.90;435294;1254;97995;-40
2023/01/25 22:41:24;;;;;;;;;;;;;;;0.39;95.84;99390.04;435222;1256;99345;-40
2023/01/25 22:51:30;;;;;;;;;;;;;;;0.47;95.58;99385.23;436099;1256;111748;-39
2023/01/25 23:01:35;;;;;;;;;;;;;;;0.50;95.55;99374.88;435171;1256;107473;-39
2023/01/25 23:11:41;;;;;;;;;;;;;;;0.54;95.43;99352.86;435268;1256;99221;-39
2023/01/25 23:21:46;;;;;;;;;;;;;;;0.51;95.59;99337.54;435278;1256;108701;-39
2023/01/25 23:31:51;;;;;;;;;;;;;;;0.40;95.43;99326.98;435364;1256;99211;-38
2023/01/25 23:41:56;;;;;;;;;;;;;;;0.29;95.27;99315.73;435413;1256;111707;-40
2023/01/25 23:52:02;;;;;;;;;;;;;;;0.21;95.25;99300.46;435393;1256;107591;-39
